createdAt,value
2022-11-15T00:01:18.068Z,103.05
2022-11-15T00:03:45.505Z,100.97
2022-11-15T00:06:12.701Z,103.57
2022-11-15T00:08:39.423Z,102.88
2022-11-15T00:11:07.880Z,107.60
2022-11-15T00:13:35.214Z,95.03
2022-11-15T00:16:02.774Z,113.50
2022-11-15T00:18:30.557Z,109.32
2022-11-15T00:20:57.794Z,109.82
2022-11-15T00:23:24.537Z,108.40
2022-11-15T00:25:56.885Z,106.22
2022-11-15T00:28:25.537Z,118.60
2022-11-15T00:30:52.222Z,107.30
2022-11-15T00:33:19.463Z,109.28
2022-11-15T00:35:46.572Z,118.00
2022-11-15T00:38:13.529Z,110.63
2022-11-15T00:40:40.848Z,109.22
2022-11-15T00:43:08.018Z,113.00
2022-11-15T00:45:37.042Z,110.07
2022-11-15T00:48:04.377Z,105.97
2022-11-15T00:50:31.210Z,107.47
2022-11-15T00:52:58.160Z,104.95
2022-11-15T00:55:25.242Z,101.47
2022-11-15T00:57:52.187Z,102.97
2022-11-15T01:00:20.283Z,104.78
2022-11-15T01:02:49.205Z,100.72
2022-11-15T01:05:17.021Z,100.68
2022-11-15T01:07:44.715Z,104.32
2022-11-15T01:10:14.683Z,108.18
2022-11-15T01:12:42.213Z,100.38
2022-11-15T01:15:13.199Z,102.28
2022-11-15T01:17:40.395Z,98.68
2022-11-15T01:20:10.400Z,106.13
2022-11-15T01:22:37.253Z,98.65
2022-11-15T01:25:04.634Z,100.50
2022-11-15T01:27:31.605Z,104.35
2022-11-15T01:29:58.440Z,96.38
2022-11-15T01:32:25.516Z,108.63
2022-11-15T01:34:52.201Z,103.38
2022-11-15T01:37:20.432Z,99.18
2022-11-15T01:39:47.135Z,104.88
2022-11-15T01:42:13.932Z,100.38
2022-11-15T01:44:43.766Z,100.63
2022-11-15T01:47:14.771Z,104.07
2022-11-15T01:49:54.290Z,100.53
2022-11-15T01:54:56.116Z,102.05
2022-11-15T01:57:23.409Z,101.78
2022-11-15T01:59:50.130Z,105.68
2022-11-15T02:02:17.038Z,99.55
2022-11-15T02:04:45.674Z,107.97
2022-11-15T02:07:16.045Z,90.45
2022-11-15T02:09:45.163Z,94.78
2022-11-15T02:12:15.854Z,100.47
2022-11-15T02:14:46.893Z,108.68
2022-11-15T02:17:31.753Z,102.45
2022-11-15T02:20:47.886Z,96.00
2022-11-15T02:23:44.558Z,97.32
2022-11-15T02:26:40.785Z,101.30
2022-11-15T02:29:10.918Z,95.43
2022-11-15T02:31:45.263Z,95.82
2022-11-15T02:34:22.443Z,82.72
2022-11-15T02:37:01.520Z,94.13
2022-11-15T02:39:36.784Z,83.18
2022-11-15T02:42:08.067Z,81.03
2022-11-15T02:44:40.529Z,86.18
2022-11-15T02:47:13.005Z,83.93
2022-11-15T02:49:42.173Z,78.00
2022-11-15T02:52:09.022Z,82.53
2022-11-15T02:54:36.417Z,70.97
2022-11-15T02:57:07.112Z,77.65
2022-11-15T03:00:08.616Z,70.25
2022-11-15T03:02:47.598Z,68.93
2022-11-15T03:05:20.774Z,68.85
2022-11-15T03:08:00.888Z,69.10
2022-11-15T03:10:37.025Z,67.45
2022-11-15T03:13:15.092Z,71.15
2022-11-15T03:15:48.592Z,67.93
2022-11-15T03:18:22.919Z,66.63
2022-11-15T03:20:51.806Z,63.30
2022-11-15T03:23:19.088Z,74.53
2022-11-15T03:25:50.625Z,62.10
2022-11-15T03:28:24.376Z,59.30
2022-11-15T03:30:55.829Z,66.75
2022-11-15T03:33:31.254Z,67.93
2022-11-15T03:35:59.187Z,60.05
2022-11-15T03:38:29.385Z,66.70
2022-11-15T03:41:00.210Z,66.38
2022-11-15T03:43:33.958Z,61.88
2022-11-15T03:46:05.471Z,69.30
2022-11-15T03:48:41.574Z,65.57
2022-11-15T03:51:08.995Z,66.82
2022-11-15T03:53:35.806Z,63.45
2022-11-15T03:56:02.627Z,60.88
2022-11-15T03:58:29.732Z,66.32
2022-11-15T04:00:58.715Z,64.22
2022-11-15T04:03:26.047Z,60.65
2022-11-15T04:05:54.857Z,67.00
2022-11-15T04:08:22.173Z,74.90
2022-11-15T04:10:55.604Z,72.97
2022-11-15T04:13:22.893Z,67.60
2022-11-15T04:15:49.865Z,70.47
2022-11-15T04:18:16.698Z,68.95
2022-11-15T04:20:43.456Z,66.90
2022-11-15T04:23:14.196Z,66.53
2022-11-15T04:25:42.779Z,69.38
2022-11-15T04:28:09.991Z,77.70
2022-11-15T04:30:37.401Z,72.18
2022-11-15T04:33:04.648Z,79.60
2022-11-15T04:35:31.796Z,73.25
2022-11-15T04:37:59.653Z,78.95
2022-11-15T04:40:28.340Z,76.85
2022-11-15T04:42:59.469Z,77.67
2022-11-15T04:45:30.334Z,79.40
2022-11-15T04:47:58.486Z,86.40
2022-11-15T04:50:25.540Z,80.90
2022-11-15T04:53:02.362Z,83.75
2022-11-15T04:55:33.870Z,79.60
2022-11-15T04:58:02.005Z,72.18
2022-11-15T05:00:30.227Z,72.40
2022-11-15T05:02:57.881Z,78.82
2022-11-15T05:05:24.832Z,65.68
2022-11-15T05:07:51.960Z,67.82
2022-11-15T05:10:18.932Z,71.47
2022-11-15T05:12:48.445Z,67.95
2022-11-15T05:15:15.429Z,67.65
2022-11-15T05:17:42.256Z,66.90
2022-11-15T05:20:10.091Z,63.40
2022-11-15T05:22:37.032Z,67.03
2022-11-15T05:25:05.197Z,62.13
2022-11-15T05:27:32.034Z,60.20
2022-11-15T05:30:01.128Z,67.03
2022-11-15T05:32:29.146Z,58.83
2022-11-15T05:34:56.079Z,61.22
2022-11-15T05:37:23.221Z,62.50
2022-11-15T05:39:50.034Z,62.65
2022-11-15T05:42:17.753Z,54.83
2022-11-15T05:44:47.899Z,59.15
2022-11-15T05:47:21.039Z,62.72
2022-11-15T05:49:50.636Z,59.72
2022-11-15T05:54:46.120Z,62.53
2022-11-15T05:57:12.895Z,68.45
2022-11-15T05:59:39.923Z,68.00
2022-11-15T06:02:06.897Z,62.83
2022-11-15T06:04:35.526Z,62.47
2022-11-15T06:07:02.906Z,72.35
2022-11-15T06:09:29.721Z,64.63
2022-11-15T06:11:56.525Z,68.50
2022-11-15T06:14:23.177Z,69.47
2022-11-15T06:16:50.051Z,67.95
2022-11-15T06:19:16.874Z,62.83
2022-11-15T06:21:45.260Z,65.88
2022-11-15T06:24:12.055Z,69.53
2022-11-15T06:26:42.329Z,63.45
2022-11-15T06:29:09.471Z,67.18
2022-11-15T06:31:36.795Z,73.47
2022-11-15T06:34:03.674Z,64.88
2022-11-15T06:36:30.696Z,69.60
2022-11-15T06:39:08.799Z,64.00
2022-11-15T06:41:35.771Z,61.45
2022-11-15T06:47:06.928Z,61.65
2022-11-15T06:49:33.764Z,61.38
2022-11-15T06:52:00.645Z,68.10
2022-11-15T06:54:28.819Z,68.28
2022-11-15T06:56:55.659Z,68.40
2022-11-15T06:59:22.372Z,66.43
2022-11-15T07:44:37.965Z,76.32
2022-11-15T07:47:05.215Z,83.35
2022-11-15T07:49:32.480Z,78.18
2022-11-15T07:52:01.580Z,77.28
2022-11-15T07:54:31.916Z,76.75
2022-11-15T07:57:54.561Z,74.43
2022-11-15T10:09:52.595Z,41.10
2022-11-15T10:12:20.142Z,36.17
2022-11-15T10:14:54.429Z,40.63
2022-11-15T10:17:47.960Z,39.83
2022-11-15T10:20:19.406Z,43.25
2022-11-15T10:25:25.994Z,38.88
2022-11-15T10:30:28.719Z,38.75
2022-11-15T10:32:58.684Z,40.05
2022-11-15T10:35:28.601Z,41.38
2022-11-15T10:38:23.160Z,44.30
2022-11-15T10:57:02.774Z,43.38
2022-11-15T10:59:38.828Z,53.50
2022-11-15T11:02:32.072Z,46.67
2022-11-15T11:05:29.457Z,48.35
2022-11-15T11:08:06.937Z,46.85
2022-11-15T11:10:51.532Z,43.80
2022-11-15T11:28:03.776Z,41.63
2022-11-15T11:39:35.258Z,44.30
2022-11-15T11:46:04.295Z,48.25
2022-11-15T11:49:06.054Z,46.35
2022-11-15T11:52:01.924Z,43.20
2022-11-15T11:54:55.830Z,49.63
2022-11-15T12:00:26.983Z,50.53
2022-11-15T12:06:44.305Z,49.80
2022-11-15T12:09:18.981Z,50.53
2022-11-15T12:19:55.274Z,47.70
2022-11-15T12:22:39.861Z,48.70
2022-11-15T12:25:28.421Z,43.22
2022-11-15T12:28:24.565Z,44.87
2022-11-15T12:36:41.710Z,45.65
2022-11-15T13:14:48.094Z,45.05
2022-11-15T13:17:33.697Z,42.95
2022-11-15T13:20:23.840Z,41.47
2022-11-15T13:22:53.546Z,52.22
2022-11-15T13:25:42.197Z,45.42
2022-11-15T13:30:57.039Z,44.47
2022-11-15T13:33:31.682Z,41.33
2022-11-15T13:38:45.681Z,37.65
2022-11-15T13:51:09.004Z,37.45
2022-11-15T13:53:42.080Z,32.30
2022-11-15T16:29:49.719Z,35.28
2022-11-15T16:32:17.083Z,34.42
2022-11-15T16:34:49.204Z,40.65
2022-11-15T16:37:24.027Z,43.53
2022-11-15T16:39:57.149Z,39.42
2022-11-15T16:42:26.973Z,41.22
2022-11-15T16:44:55.293Z,42.80
2022-11-15T16:47:22.208Z,40.40
2022-11-15T16:49:51.909Z,40.30
2022-11-15T16:52:21.542Z,44.80
2022-11-15T16:54:51.504Z,45.70
2022-11-15T16:57:18.461Z,43.55
2022-11-15T16:59:45.227Z,42.58
2022-11-15T17:02:13.862Z,44.35
2022-11-15T17:04:48.511Z,45.13
2022-11-15T17:07:15.728Z,47.45
2022-11-15T17:09:42.612Z,50.58
2022-11-15T17:12:09.902Z,46.85
2022-11-15T17:14:36.677Z,42.97
2022-11-15T17:17:03.638Z,41.42
2022-11-15T17:19:32.445Z,46.47
2022-11-15T17:21:59.213Z,53.33
2022-11-15T17:24:28.460Z,49.50
2022-11-15T17:26:55.311Z,49.40
2022-11-15T17:29:22.457Z,51.22
2022-11-15T17:32:04.903Z,54.38
2022-11-15T17:34:33.188Z,51.08
2022-11-15T17:37:00.328Z,58.97
2022-11-15T17:39:31.136Z,50.63
2022-11-15T17:41:58.157Z,60.55
2022-11-15T17:44:27.052Z,61.72
2022-11-15T17:46:53.878Z,50.50
2022-11-15T17:49:20.622Z,53.80
2022-11-15T17:51:50.181Z,59.08
2022-11-15T17:54:17.264Z,55.05
2022-11-15T17:56:44.167Z,60.30
2022-11-15T17:59:14.813Z,58.60
2022-11-15T18:01:44.295Z,60.60
2022-11-15T18:04:11.149Z,57.25
2022-11-15T18:06:38.104Z,61.13
2022-11-15T18:09:06.787Z,65.40
2022-11-15T18:11:35.448Z,56.23
2022-11-15T18:14:03.824Z,61.60
2022-11-15T18:16:32.437Z,61.25
2022-11-15T18:18:59.744Z,56.33
2022-11-15T18:21:28.246Z,60.72
2022-11-15T18:24:04.025Z,55.25
2022-11-15T18:26:32.203Z,50.53
2022-11-15T18:29:03.930Z,62.72
2022-11-15T18:31:31.553Z,51.15
2022-11-15T18:33:59.879Z,50.67
2022-11-15T18:36:29.836Z,55.95
2022-11-15T18:38:57.659Z,54.25
2022-11-15T18:41:25.642Z,49.97
2022-11-15T18:43:54.673Z,50.80
2022-11-15T18:46:26.860Z,54.28
2022-11-15T18:48:54.547Z,48.30
2022-11-15T18:51:23.107Z,47.05
2022-11-15T18:53:53.070Z,52.45
2022-11-15T18:56:21.230Z,45.58
2022-11-15T18:58:54.670Z,47.05
2022-11-15T19:01:27.458Z,56.90
2022-11-15T19:03:58.283Z,47.20
2022-11-15T19:06:26.733Z,46.28
2022-11-15T19:08:59.229Z,50.20
2022-11-15T19:11:27.732Z,49.97
2022-11-15T19:13:55.445Z,42.53
2022-11-15T19:16:28.731Z,42.97
2022-11-15T19:19:05.715Z,43.28
2022-11-15T19:21:32.838Z,47.72
2022-11-15T19:24:00.559Z,48.05
2022-11-15T19:26:28.544Z,45.00
2022-11-15T19:28:56.733Z,44.55
2022-11-15T19:31:27.056Z,42.97
2022-11-15T19:33:54.907Z,45.72
2022-11-15T19:36:26.674Z,48.13
2022-11-15T19:38:54.142Z,47.88
2022-11-15T19:41:22.661Z,44.95
2022-11-15T19:43:51.701Z,49.75
2022-11-15T19:46:20.652Z,45.67
2022-11-15T19:48:50.910Z,42.92
2022-11-15T19:51:21.061Z,46.15
2022-11-15T19:53:48.747Z,49.67
2022-11-15T19:56:18.989Z,43.70
2022-11-15T19:58:49.754Z,44.97
2022-11-15T20:01:21.567Z,44.65
2022-11-15T20:03:52.357Z,46.33
2022-11-15T20:06:35.243Z,48.95
2022-11-15T20:09:05.779Z,42.30
2022-11-15T20:11:33.684Z,47.95
2022-11-15T20:14:01.723Z,46.20
2022-11-15T20:16:30.002Z,43.35
2022-11-15T20:19:00.033Z,53.92
2022-11-15T20:21:27.993Z,47.78
2022-11-15T20:23:55.014Z,48.03
2022-11-15T20:26:22.412Z,51.78
2022-11-15T20:28:49.238Z,57.10
2022-11-15T20:31:17.063Z,50.63
2022-11-15T20:33:44.300Z,51.53
2022-11-15T20:36:15.243Z,49.70
2022-11-15T20:38:43.465Z,52.67
2022-11-15T20:41:10.742Z,47.33
2022-11-15T20:43:37.563Z,52.20
2022-11-15T20:46:04.505Z,51.70
2022-11-15T20:48:31.478Z,47.58
2022-11-15T20:51:06.142Z,43.65
2022-11-15T20:53:34.962Z,46.72
2022-11-15T20:56:07.476Z,44.73
2022-11-15T20:58:34.757Z,47.38
2022-11-15T21:01:01.791Z,48.38
2022-11-15T21:03:28.660Z,52.40
2022-11-15T21:05:55.615Z,46.75
2022-11-15T21:08:22.402Z,49.00
2022-11-15T21:10:52.840Z,50.63
2022-11-15T21:13:20.028Z,45.92
2022-11-15T21:15:46.815Z,44.17
2022-11-15T21:18:13.724Z,38.25
2022-11-15T21:20:40.414Z,37.70
2022-11-15T21:23:09.632Z,37.95
2022-11-15T21:25:36.442Z,37.83
2022-11-15T21:28:04.858Z,35.30
2022-11-15T21:30:31.600Z,35.55
2022-11-15T21:32:58.373Z,32.55
2022-11-15T21:35:25.153Z,30.58
2022-11-15T21:37:56.513Z,31.42
2022-11-15T21:40:23.983Z,32.13
2022-11-15T21:42:50.713Z,30.58
2022-11-15T21:45:29.973Z,27.25
2022-11-15T21:47:57.019Z,34.78
2022-11-15T21:50:23.961Z,34.47
2022-11-15T21:52:50.733Z,33.00
2022-11-15T21:55:17.522Z,32.58
2022-11-15T21:57:46.496Z,34.60
2022-11-15T22:00:14.815Z,43.67
2022-11-15T22:02:43.058Z,32.22
2022-11-15T22:05:09.804Z,33.40
2022-11-15T22:07:42.642Z,31.15
2022-11-15T22:10:09.817Z,34.20
2022-11-15T22:12:36.915Z,36.78
2022-11-15T22:15:04.281Z,31.63
2022-11-15T22:17:31.027Z,35.22
2022-11-15T22:20:11.307Z,33.40
2022-11-15T22:22:57.397Z,31.27
2022-11-15T22:25:24.319Z,34.65
2022-11-15T22:27:51.183Z,36.55
2022-11-15T22:30:20.563Z,34.33
2022-11-15T22:32:47.493Z,33.90
2022-11-15T22:35:16.020Z,34.10
2022-11-15T22:37:45.741Z,33.30
2022-11-15T22:40:12.463Z,34.95
2022-11-15T22:42:46.143Z,34.53
2022-11-15T22:45:18.099Z,31.08
2022-11-15T22:47:45.899Z,35.75
2022-11-15T22:50:17.163Z,34.60
2022-11-15T22:52:44.127Z,40.90
2022-11-15T22:55:11.057Z,34.97
2022-11-15T22:57:40.250Z,36.97
2022-11-15T23:00:11.521Z,34.55
2022-11-15T23:08:55.694Z,36.90
2022-11-15T23:11:22.753Z,36.47
2022-11-15T23:13:50.960Z,32.90
2022-11-15T23:16:17.791Z,37.65
2022-11-15T23:18:56.503Z,36.05
2022-11-15T23:21:24.870Z,36.35
2022-11-15T23:24:18.067Z,40.22
2022-11-15T23:26:46.270Z,42.25
2022-11-15T23:29:15.223Z,42.90
2022-11-15T23:31:43.138Z,43.30
2022-11-15T23:34:09.970Z,42.28
2022-11-15T23:36:36.773Z,39.10
2022-11-15T23:39:05.139Z,41.63
2022-11-15T23:41:32.095Z,41.30
2022-11-15T23:43:59.045Z,42.83
2022-11-15T23:46:25.917Z,37.78
2022-11-15T23:48:52.780Z,40.40
2022-11-15T23:51:19.618Z,39.42
2022-11-15T23:53:46.568Z,42.00
2022-11-15T23:56:16.622Z,35.83
2022-11-15T23:58:44.570Z,36.30
